RKTU METAR and TAF | Updated Today

RKTU METAR

Cheongju International Airport/Cheongju Air Base (K-59/G-513)

Observation time: 46 min. ago

RKTU 010800Z 03003KT CAVOK 25/12 Q1017

Need help? Read our tutorial on how to read METARs or read the parsed version below.

Cheongju International Airport/Cheongju Air Base (K-59/G-513) (RKTU) METAR

  • Weather conditions on Sat, 01 Oct 2022 08:00:00 +0000 (46 min. ago):
  • Present conditions: Dry
  • Clouds: Clear skies
  • Visibility: Greater than 10 km
  • Wind: 30 degrees at 3 knots
  • Temperature: 25 celsius
  • Dew point: 12 celsius
  • Pressure: 1017 millibars
  • Remarks: None


Useful to know...

RKTU TAF

Cheongju International Airport/Cheongju Air Base (K-59/G-513)

TAF RKTU 010500Z 0106/0212 33006KT 9999 SCT030 BKN250 TN12/0121Z TX27/0206Z
Observation time: 3:46 hr. ago
Need help? Read our tutorial on how to read TAFs or read the parsed version below.

Parsed version of TAF for Cheongju International Airport/Cheongju Air Base (K-59/G-513) (RKTU)

  • From 01 October at 06:00 UTC, to day 02 of the month at 12:00 UTC
  • Clouds: Scattered at 914 meters; broken sky at 7620 meters
  • Visibility: Greater than 10 km
  • Wind: 330 degrees at 6